< < Back
Terminal Aerodrome Forecast


Current Version              Previous Versions:   1  2  3  4  5  6  7  8  9  

Terminal Aerodrome Forecast

728
FTUS44 KBMX 302300
TAFANB
TAF
KANB 302333Z 3100/3124 VRB03KT P6SM SCT250=

Latest METAR

435
SAUS70 KWBC 311400 RRD
MTRANB
METAR KANB 311353Z AUTO 00000KT 10SM CLR 22/15 A3008 RMK AO2 SLP177
T02170150


USA.gov is the U.S. government's official web portal to all federal, state and local government web resources and services.